createdAt,value
2023-04-14T00:02:06.690Z,3.17
2023-04-14T00:04:34.041Z,3.40
2023-04-14T00:07:01.334Z,3.20
2023-04-14T00:09:28.247Z,3.67
2023-04-14T00:11:56.514Z,3.47
2023-04-14T00:14:23.584Z,3.30
2023-04-14T00:16:50.532Z,3.20
2023-04-14T00:19:17.461Z,4.73
2023-04-14T00:21:44.400Z,3.80
2023-04-14T00:24:11.293Z,3.67
2023-04-14T00:26:38.166Z,3.60
2023-04-14T00:29:05.119Z,3.80
2023-04-14T00:31:32.215Z,3.07
2023-04-14T00:34:00.782Z,3.37
2023-04-14T00:36:27.920Z,4.10
2023-04-14T00:38:54.821Z,3.40
2023-04-14T00:41:21.805Z,3.50
2023-04-14T00:43:48.800Z,4.27
2023-04-14T00:46:17.309Z,3.77
2023-04-14T00:48:44.604Z,3.00
2023-04-14T00:51:12.060Z,3.20
2023-04-14T00:53:40.952Z,3.37
2023-04-14T00:56:08.267Z,3.10
2023-04-14T00:58:35.841Z,3.33
2023-04-14T01:01:02.987Z,3.17
2023-04-14T01:03:30.030Z,3.07
2023-04-14T01:05:58.263Z,2.67
2023-04-14T01:08:25.788Z,3.30
2023-04-14T01:11:08.762Z,2.83
2023-04-14T01:13:54.137Z,3.60
2023-04-14T01:16:36.001Z,2.87
2023-04-14T01:19:45.481Z,2.63
2023-04-14T01:22:15.038Z,3.20
2023-04-14T01:25:14.513Z,3.37
2023-04-14T01:28:14.216Z,3.60
2023-04-14T01:30:57.285Z,3.20
2023-04-14T01:33:27.651Z,3.07
2023-04-14T01:35:58.900Z,3.50
2023-04-14T01:38:29.914Z,4.07
2023-04-14T01:41:02.973Z,3.70
2023-04-14T01:43:34.310Z,3.20
2023-04-14T01:46:09.791Z,3.50
2023-04-14T01:48:38.299Z,3.10
2023-04-14T01:51:07.511Z,3.33
2023-04-14T01:53:40.336Z,3.77
2023-04-14T01:56:09.534Z,2.87
2023-04-14T01:58:37.491Z,3.63
2023-04-14T02:01:05.464Z,3.50
2023-04-14T02:03:33.419Z,4.10
2023-04-14T02:06:03.197Z,3.30
2023-04-14T02:08:32.897Z,3.93
2023-04-14T02:11:03.072Z,4.47
2023-04-14T02:13:33.015Z,3.37
2023-04-14T02:16:01.887Z,4.17
2023-04-14T02:18:31.460Z,3.13
2023-04-14T02:21:01.397Z,2.90
2023-04-14T02:23:28.801Z,3.83
2023-04-14T02:26:02.817Z,3.60
2023-04-14T02:28:34.675Z,3.17
2023-04-14T02:31:09.017Z,3.53
2023-04-14T02:33:37.639Z,3.27
2023-04-14T02:36:22.512Z,3.40
2023-04-14T02:38:59.802Z,3.47
2023-04-14T02:41:29.839Z,3.70
2023-04-14T02:44:14.135Z,3.50
2023-04-14T02:47:08.113Z,3.63
2023-04-14T02:49:43.572Z,3.40
2023-04-14T02:52:16.634Z,2.97
2023-04-14T02:54:46.574Z,4.37
2023-04-14T02:57:14.727Z,3.97
2023-04-14T02:59:46.950Z,3.17
2023-04-14T03:02:16.266Z,3.50
2023-04-14T03:04:50.148Z,3.40
2023-04-14T03:07:27.350Z,3.80
2023-04-14T03:09:55.871Z,3.20
2023-04-14T03:12:24.509Z,4.00
2023-04-14T03:14:52.145Z,3.50
2023-04-14T03:17:21.226Z,3.50
2023-04-14T03:19:52.612Z,3.53
2023-04-14T03:22:22.218Z,4.20
2023-04-14T03:24:50.754Z,4.17
2023-04-14T03:27:25.901Z,4.03
2023-04-14T03:29:55.727Z,4.00
2023-04-14T03:32:30.338Z,4.13
2023-04-14T03:34:59.099Z,3.20
2023-04-14T03:37:28.398Z,4.37
2023-04-14T03:40:00.602Z,3.77
2023-04-14T03:42:30.173Z,3.80
2023-04-14T03:45:00.416Z,3.53
2023-04-14T03:47:31.719Z,4.10
2023-04-14T03:50:03.634Z,3.77
2023-04-14T03:52:35.535Z,3.87
2023-04-14T03:55:08.603Z,3.87
2023-04-14T03:57:37.680Z,4.40
2023-04-14T04:00:08.477Z,4.10
2023-04-14T04:02:43.912Z,3.90
2023-04-14T04:05:12.740Z,4.23
2023-04-14T04:07:41.762Z,3.83
2023-04-14T04:10:09.526Z,3.60
2023-04-14T04:12:38.162Z,3.67
2023-04-14T04:15:08.378Z,4.20
2023-04-14T04:17:37.179Z,3.87
2023-04-14T04:20:10.590Z,4.20
2023-04-14T04:22:41.163Z,3.97
2023-04-14T04:25:10.299Z,4.33
2023-04-14T04:27:38.437Z,4.37
2023-04-14T04:30:14.827Z,4.50
2023-04-14T04:32:42.016Z,4.10
2023-04-14T04:35:11.534Z,4.77
2023-04-14T04:37:41.416Z,3.57
2023-04-14T04:40:08.971Z,3.80
2023-04-14T04:42:44.079Z,4.37
2023-04-14T04:45:56.209Z,4.13
2023-04-14T04:48:23.781Z,4.60
2023-04-14T04:50:50.718Z,4.60
2023-04-14T04:53:18.569Z,4.77
2023-04-14T04:55:45.651Z,4.50
2023-04-14T04:58:12.547Z,3.93
2023-04-14T05:00:39.870Z,5.10
2023-04-14T05:03:07.083Z,4.73
2023-04-14T05:05:37.290Z,5.00
2023-04-14T05:08:04.494Z,5.00
2023-04-14T05:10:34.658Z,5.33
2023-04-14T05:13:01.550Z,5.30
2023-04-14T05:15:28.462Z,4.90
2023-04-14T05:17:55.467Z,4.97
2023-04-14T05:20:22.472Z,4.93
2023-04-14T05:22:49.360Z,5.70
2023-04-14T05:25:16.277Z,5.53
2023-04-14T05:27:43.191Z,5.50
2023-04-14T05:30:10.938Z,5.40
2023-04-14T05:32:37.852Z,5.30
2023-04-14T05:35:05.390Z,5.40
2023-04-14T05:37:32.755Z,5.70
2023-04-14T05:40:01.374Z,5.80
2023-04-14T05:42:28.269Z,5.00
2023-04-14T05:44:55.252Z,5.50
2023-04-14T05:47:22.117Z,5.33
2023-04-14T05:49:49.017Z,5.30
2023-04-14T05:52:16.056Z,4.93
2023-04-14T05:54:43.324Z,5.30
2023-04-14T05:57:10.325Z,5.63
2023-04-14T05:59:37.265Z,5.40
2023-04-14T06:02:07.272Z,5.40
2023-04-14T06:04:34.507Z,5.20
2023-04-14T06:07:02.891Z,5.63
2023-04-14T06:09:29.862Z,5.43
2023-04-14T06:11:56.875Z,6.07
2023-04-14T06:14:23.932Z,5.60
2023-04-14T06:16:51.050Z,5.70
2023-04-14T06:19:21.069Z,6.40
2023-04-14T06:21:48.036Z,6.47
2023-04-14T06:24:14.925Z,6.07
2023-04-14T06:26:42.430Z,6.13
2023-04-14T06:29:09.419Z,5.80
2023-04-14T06:31:36.448Z,5.90
2023-04-14T06:34:03.344Z,5.73
2023-04-14T06:36:30.193Z,5.93
2023-04-14T06:38:58.293Z,6.10
2023-04-14T06:41:25.316Z,6.23
2023-04-14T06:43:52.247Z,6.70
2023-04-14T06:46:19.308Z,7.20
2023-04-14T06:48:46.349Z,7.00
2023-04-14T06:51:13.778Z,6.60
2023-04-14T06:53:40.804Z,7.27
2023-04-14T06:56:08.235Z,7.03
2023-04-14T06:58:35.277Z,7.23
2023-04-14T07:01:03.632Z,7.10
2023-04-14T07:03:31.237Z,7.63
2023-04-14T07:06:06.910Z,7.60
2023-04-14T07:08:35.200Z,7.90
2023-04-14T07:11:04.297Z,8.47
2023-04-14T07:13:31.664Z,8.57
2023-04-14T07:15:59.345Z,9.07
2023-04-14T07:18:26.325Z,7.93
2023-04-14T07:20:54.198Z,8.90
2023-04-14T07:23:22.085Z,9.20
2023-04-14T07:25:53.721Z,9.40
2023-04-14T07:28:22.118Z,9.00
2023-04-14T07:30:50.203Z,9.80
2023-04-14T07:33:19.042Z,9.70
2023-04-14T07:36:00.765Z,10.73
2023-04-14T07:38:29.691Z,10.60
2023-04-14T07:40:56.676Z,10.17
2023-04-14T07:43:23.943Z,9.60
2023-04-14T07:45:52.585Z,9.77
2023-04-14T07:48:21.378Z,11.87
2023-04-14T07:50:49.916Z,10.10
2023-04-14T07:53:16.904Z,10.60
2023-04-14T07:55:43.836Z,10.10
2023-04-14T07:58:15.365Z,10.57
2023-04-14T08:00:43.019Z,11.40
2023-04-14T08:03:10.282Z,11.07
2023-04-14T08:05:37.778Z,10.80
2023-04-14T08:08:05.023Z,12.30
2023-04-14T08:10:31.963Z,12.30
2023-04-14T08:12:59.836Z,11.80
2023-04-14T08:15:27.939Z,11.90
2023-04-14T08:17:54.895Z,12.57
2023-04-14T08:20:22.851Z,11.60
2023-04-14T08:22:49.775Z,12.00
2023-04-14T08:25:16.812Z,12.67
2023-04-14T08:27:44.250Z,12.47
2023-04-14T08:30:11.774Z,11.40
2023-04-14T08:32:38.785Z,11.57
2023-04-14T08:35:38.738Z,13.03
2023-04-14T08:37:53.440Z,13.10
2023-04-14T08:40:22.519Z,12.73
2023-04-14T08:42:49.845Z,12.20
2023-04-14T08:45:19.137Z,14.47
2023-04-14T08:47:48.438Z,12.57
2023-04-14T08:50:18.578Z,12.50
2023-04-14T08:52:47.474Z,14.40
2023-04-14T08:55:16.749Z,15.47
2023-04-14T08:57:44.197Z,15.93
2023-04-14T09:00:11.840Z,15.60
2023-04-14T09:02:40.688Z,15.67
2023-04-14T09:05:09.121Z,15.90
2023-04-14T09:07:36.887Z,16.93
2023-04-14T09:10:04.710Z,16.80
2023-04-14T09:12:32.434Z,16.10
2023-04-14T09:14:59.805Z,17.87
2023-04-14T09:17:28.855Z,17.37
2023-04-14T09:20:38.605Z,19.10
2023-04-14T09:22:42.965Z,16.50
2023-04-14T09:25:11.282Z,16.07
2023-04-14T09:27:38.476Z,17.27
2023-04-14T09:30:06.829Z,17.47
2023-04-14T09:32:33.749Z,18.60
2023-04-14T09:35:00.700Z,19.37
2023-04-14T09:37:27.584Z,18.70
2023-04-14T09:39:55.694Z,20.10
2023-04-14T09:42:42.557Z,19.60
2023-04-14T09:45:10.197Z,21.83
2023-04-14T09:47:37.595Z,20.60
2023-04-14T09:50:04.974Z,20.50
2023-04-14T09:52:44.686Z,20.10
2023-04-14T09:55:14.228Z,21.93
2023-04-14T09:57:47.590Z,21.23
2023-04-14T10:00:22.466Z,19.13
2023-04-14T10:02:52.205Z,20.73
2023-04-14T10:05:31.082Z,18.90
2023-04-14T10:08:04.157Z,18.00
2023-04-14T10:10:31.231Z,18.20
2023-04-14T10:13:00.536Z,16.73
2023-04-14T10:15:28.124Z,18.17
2023-04-14T10:17:55.888Z,16.83
2023-04-14T10:20:22.926Z,18.60
2023-04-14T10:22:50.676Z,14.17
2023-04-14T10:25:18.690Z,15.57
2023-04-14T10:27:45.995Z,15.03
2023-04-14T10:30:13.126Z,12.63
2023-04-14T10:32:41.517Z,12.67
2023-04-14T10:35:14.917Z,12.00
2023-04-14T10:37:51.426Z,12.40
2023-04-14T10:40:18.884Z,10.07
2023-04-14T10:42:57.104Z,8.53
2023-04-14T10:45:24.131Z,8.50
2023-04-14T10:47:51.754Z,9.17
2023-04-14T10:50:24.993Z,8.70
2023-04-14T10:52:55.733Z,7.50
2023-04-14T10:55:24.813Z,6.13
2023-04-14T10:57:54.527Z,6.50
2023-04-14T11:00:25.176Z,6.20
2023-04-14T11:03:10.822Z,7.40
2023-04-14T11:05:53.665Z,7.43
2023-04-14T11:08:34.521Z,7.90
2023-04-14T11:11:04.140Z,6.77
2023-04-14T11:13:35.646Z,6.40
2023-04-14T11:16:07.252Z,6.37
2023-04-14T11:18:42.698Z,6.27
2023-04-14T11:21:16.791Z,6.07
2023-04-14T11:23:44.373Z,6.57
2023-04-14T11:26:14.053Z,7.40
2023-04-14T11:28:43.553Z,6.80
2023-04-14T11:31:17.153Z,7.07
2023-04-14T11:33:44.985Z,6.23
2023-04-14T11:36:12.957Z,7.47
2023-04-14T11:38:42.556Z,6.47
2023-04-14T11:41:10.104Z,7.40
2023-04-14T11:43:46.535Z,7.37
2023-04-14T11:46:13.618Z,8.90
2023-04-14T11:48:41.015Z,9.17
2023-04-14T11:51:07.916Z,7.80
2023-04-14T11:53:36.332Z,7.17
2023-04-14T11:56:03.881Z,8.13
2023-04-14T11:58:31.378Z,8.90
2023-04-14T12:00:58.275Z,7.67
2023-04-14T12:03:31.156Z,6.53
2023-04-14T12:06:03.251Z,7.20
2023-04-14T12:08:31.447Z,7.23
2023-04-14T12:10:58.992Z,6.80
2023-04-14T12:13:26.929Z,6.50
2023-04-14T12:15:54.569Z,5.27
2023-04-14T12:18:22.336Z,4.50
2023-04-14T12:21:01.907Z,4.90
2023-04-14T12:23:28.885Z,4.83
2023-04-14T12:25:56.095Z,5.00
2023-04-14T12:28:30.489Z,4.30
2023-04-14T12:31:04.028Z,4.00
2023-04-14T12:33:32.868Z,4.40
2023-04-14T12:36:08.013Z,4.63
2023-04-14T12:38:35.000Z,3.80
2023-04-14T12:41:02.668Z,4.30
2023-04-14T12:43:36.837Z,5.33
2023-04-14T12:46:05.681Z,4.90
2023-04-14T12:48:48.255Z,5.83
2023-04-14T12:51:17.543Z,5.50
2023-04-14T12:53:46.896Z,5.40
2023-04-14T12:56:27.376Z,6.80
2023-04-14T12:58:55.238Z,6.07
2023-04-14T13:01:23.597Z,6.43
2023-04-14T13:03:55.770Z,6.07
2023-04-14T13:06:24.544Z,6.50
2023-04-14T13:08:53.558Z,7.10
2023-04-14T13:11:25.811Z,6.13
2023-04-14T13:13:53.665Z,6.30
2023-04-14T13:16:21.395Z,7.97
2023-04-14T13:18:49.247Z,7.00
2023-04-14T13:21:16.961Z,6.67
2023-04-14T13:23:43.965Z,7.43
2023-04-14T13:26:12.450Z,6.43
2023-04-14T13:28:39.417Z,7.67
2023-04-14T13:31:06.813Z,8.17
2023-04-14T13:33:33.782Z,8.10
2023-04-14T13:36:03.075Z,9.03
2023-04-14T13:38:30.829Z,8.03
2023-04-14T13:40:57.800Z,9.17
2023-04-14T13:43:24.780Z,10.10
2023-04-14T13:45:52.001Z,10.23
2023-04-14T13:48:19.215Z,11.10
2023-04-14T13:50:46.254Z,9.63
2023-04-14T13:53:13.164Z,11.40
2023-04-14T13:55:40.107Z,10.80
2023-04-14T13:58:07.028Z,11.60
2023-04-14T14:00:34.012Z,10.87
2023-04-14T14:03:01.334Z,12.40
2023-04-14T14:05:28.737Z,12.20
2023-04-14T14:07:58.628Z,12.20
2023-04-14T14:10:25.533Z,10.83
2023-04-14T14:12:53.249Z,10.57
2023-04-14T14:15:20.286Z,9.23
2023-04-14T14:17:47.287Z,9.50
2023-04-14T14:20:14.220Z,7.70
2023-04-14T14:22:41.099Z,8.80
2023-04-14T14:25:19.547Z,7.37
2023-04-14T14:27:47.779Z,7.80
2023-04-14T14:30:14.724Z,7.30
2023-04-14T14:32:41.679Z,7.40
2023-04-14T14:35:09.530Z,7.57
2023-04-14T14:37:36.572Z,7.50
2023-04-14T14:40:03.939Z,6.60
2023-04-14T14:42:31.182Z,5.70
2023-04-14T14:45:01.028Z,5.27
2023-04-14T14:47:28.600Z,5.03
2023-04-14T14:50:02.040Z,4.90
2023-04-14T14:52:31.977Z,4.83
2023-04-14T14:54:59.110Z,4.60
2023-04-14T14:57:26.818Z,4.83
2023-04-14T14:59:53.952Z,4.07
2023-04-14T15:02:21.764Z,3.83
2023-04-14T15:04:49.639Z,3.53
2023-04-14T15:07:16.664Z,3.90
2023-04-14T15:09:45.942Z,4.30
2023-04-14T15:12:12.889Z,3.50
2023-04-14T15:14:39.797Z,3.80
2023-04-14T15:17:07.066Z,4.30
2023-04-14T15:19:34.004Z,3.50
2023-04-14T15:22:01.520Z,4.00
2023-04-14T15:24:28.507Z,3.77
2023-04-14T15:26:56.053Z,3.90
2023-04-14T15:29:25.072Z,5.27
2023-04-14T15:31:52.137Z,4.63
2023-04-14T15:34:19.106Z,4.50
2023-04-14T15:36:46.007Z,3.80
2023-04-14T15:39:12.932Z,4.90
2023-04-14T15:41:39.818Z,4.57
2023-04-14T15:44:06.697Z,5.10
2023-04-14T15:46:33.584Z,3.67
2023-04-14T15:49:00.697Z,4.80
2023-04-14T15:51:27.628Z,5.27
2023-04-14T15:53:54.509Z,4.30
2023-04-14T15:56:23.294Z,4.53
2023-04-14T15:58:50.590Z,5.13
2023-04-14T16:01:17.731Z,5.40
2023-04-14T16:03:45.098Z,6.33
2023-04-14T16:06:12.298Z,6.00
2023-04-14T16:08:39.294Z,6.10
2023-04-14T16:11:06.258Z,7.37
2023-04-14T16:13:33.192Z,7.20
2023-04-14T16:16:00.391Z,7.80
2023-04-14T16:18:27.597Z,7.93
2023-04-14T16:20:54.473Z,8.10
2023-04-14T16:23:21.969Z,8.70
2023-04-14T16:25:51.745Z,8.23
2023-04-14T16:28:18.657Z,8.47
2023-04-14T16:30:48.728Z,9.63
2023-04-14T16:33:16.071Z,8.33
2023-04-14T16:35:42.940Z,8.60
2023-04-14T16:38:09.842Z,9.20
2023-04-14T16:40:37.979Z,9.30
2023-04-14T16:43:04.945Z,9.63
2023-04-14T16:45:32.448Z,9.53
2023-04-14T16:48:00.080Z,10.73
2023-04-14T16:50:27.545Z,9.40
2023-04-14T16:52:54.613Z,8.63
2023-04-14T16:55:21.551Z,9.27
2023-04-14T16:57:48.562Z,9.03
2023-04-14T17:00:16.751Z,10.33
2023-04-14T17:02:43.918Z,9.37
2023-04-14T17:05:13.217Z,8.80
2023-04-14T17:07:41.082Z,8.77
2023-04-14T17:10:08.634Z,10.30
2023-04-14T17:12:35.575Z,9.60
2023-04-14T17:15:03.648Z,9.77
2023-04-14T17:17:31.672Z,10.13
2023-04-14T17:19:58.577Z,11.60
2023-04-14T17:22:25.473Z,9.50
2023-04-14T17:24:52.494Z,10.77
2023-04-14T17:27:20.165Z,10.53
2023-04-14T17:29:47.405Z,8.10
2023-04-14T17:32:14.477Z,10.23
2023-04-14T17:34:41.515Z,8.97
2023-04-14T17:37:08.889Z,10.17
2023-04-14T17:39:35.784Z,9.77
2023-04-14T17:42:03.426Z,9.63
2023-04-14T17:44:33.129Z,10.30
2023-04-14T17:47:12.638Z,10.00
2023-04-14T17:49:39.591Z,9.13
2023-04-14T17:52:17.069Z,8.60
2023-04-14T17:54:45.796Z,9.17
2023-04-14T17:57:13.417Z,10.43
2023-04-14T17:59:44.825Z,11.83
2023-04-14T18:02:14.202Z,10.07
2023-04-14T18:04:41.219Z,10.33
2023-04-14T18:07:08.139Z,11.17
2023-04-14T18:09:35.064Z,10.00
2023-04-14T18:12:01.997Z,8.67
2023-04-14T18:14:29.887Z,9.87
2023-04-14T18:16:57.252Z,9.70
2023-04-14T18:19:24.428Z,10.60
2023-04-14T18:21:51.433Z,9.43
2023-04-14T18:26:48.089Z,11.20
2023-04-14T18:29:14.988Z,11.40
2023-04-14T18:31:42.659Z,10.83
2023-04-14T18:34:10.364Z,11.17
2023-04-14T18:36:38.757Z,11.73
2023-04-14T18:39:07.036Z,13.83
2023-04-14T18:41:34.275Z,12.37
2023-04-14T18:44:01.307Z,12.90
2023-04-14T18:46:28.420Z,13.57
2023-04-14T18:48:55.420Z,14.33
2023-04-14T18:51:22.412Z,15.47
2023-04-14T18:53:49.413Z,16.70
2023-04-14T18:56:16.330Z,15.07
2023-04-14T18:58:43.221Z,16.80
2023-04-14T19:01:10.175Z,18.30
2023-04-14T19:03:37.726Z,17.40
2023-04-14T19:06:04.799Z,18.03
2023-04-14T19:08:31.746Z,16.60
2023-04-14T19:10:59.315Z,17.50
2023-04-14T19:13:26.519Z,15.90
2023-04-14T19:15:53.882Z,16.87
2023-04-14T19:18:20.822Z,16.87
2023-04-14T19:20:49.539Z,18.13
2023-04-14T19:23:16.461Z,18.83
2023-04-14T19:25:43.340Z,17.40
2023-04-14T19:28:16.515Z,17.47
2023-04-14T19:30:45.578Z,16.20
2023-04-14T19:33:12.936Z,16.33
2023-04-14T19:35:40.052Z,17.20
2023-04-14T19:38:07.780Z,16.57
2023-04-14T19:40:34.671Z,18.03
2023-04-14T19:43:01.840Z,16.87
2023-04-14T19:45:28.798Z,16.50
2023-04-14T19:47:55.770Z,16.50
2023-04-14T19:50:22.787Z,18.07
2023-04-14T19:52:51.890Z,17.43
2023-04-14T19:55:19.054Z,18.67
2023-04-14T19:57:46.994Z,16.40
2023-04-14T20:00:15.664Z,19.17
2023-04-14T20:02:42.936Z,16.87
2023-04-14T20:05:10.043Z,19.60
2023-04-14T20:07:37.001Z,18.70
2023-04-14T20:10:04.098Z,21.40
2023-04-14T20:12:31.063Z,21.67
2023-04-14T20:14:58.149Z,22.60
2023-04-14T20:17:27.218Z,25.40
2023-04-14T20:19:54.766Z,27.57
2023-04-14T20:22:21.644Z,28.63
2023-04-14T20:24:48.544Z,31.50
2023-04-14T20:27:15.456Z,31.80
2023-04-14T20:29:42.350Z,32.37
2023-04-14T20:32:09.527Z,32.97
2023-04-14T20:34:36.419Z,34.07
2023-04-14T20:37:03.305Z,36.23
2023-04-14T20:39:30.564Z,35.53
2023-04-14T20:41:57.477Z,36.40
2023-04-14T20:44:24.432Z,37.90
2023-04-14T20:46:51.854Z,36.63
2023-04-14T20:49:18.725Z,35.63
2023-04-14T20:51:46.782Z,36.17
2023-04-14T20:54:13.933Z,33.63
2023-04-14T20:56:40.821Z,37.20
2023-04-14T20:59:07.707Z,35.63
2023-04-14T21:01:34.571Z,36.57
2023-04-14T21:04:01.565Z,39.03
2023-04-14T21:06:29.057Z,39.30
2023-04-14T21:08:56.891Z,38.73
2023-04-14T21:11:23.767Z,39.57
2023-04-14T21:15:25.472Z,38.07
2023-04-14T21:16:38.171Z,36.97
2023-04-14T21:19:05.532Z,39.27
2023-04-14T21:21:32.985Z,37.77
2023-04-14T21:23:59.909Z,38.17
2023-04-14T21:26:28.398Z,38.47
2023-04-14T21:28:55.283Z,36.10
2023-04-14T21:31:22.166Z,39.63
2023-04-14T21:33:49.004Z,37.37
2023-04-14T21:36:15.838Z,38.30
2023-04-14T21:38:43.379Z,39.67
2023-04-14T21:41:10.684Z,43.50
2023-04-14T21:43:40.923Z,42.40
2023-04-14T21:46:08.050Z,39.60
2023-04-14T21:48:35.030Z,40.50
2023-04-14T21:51:02.413Z,43.57
2023-04-14T21:53:29.795Z,40.50
2023-04-14T21:56:04.431Z,40.10
2023-04-14T21:58:36.632Z,41.97
2023-04-14T22:01:03.694Z,45.20
2023-04-14T22:03:30.816Z,43.10
2023-04-14T22:05:57.803Z,43.53
2023-04-14T22:08:24.673Z,43.53
2023-04-14T22:10:52.809Z,40.97
2023-04-14T22:13:19.678Z,45.20
2023-04-14T22:15:47.263Z,44.63
2023-04-14T22:18:14.126Z,43.30
2023-04-14T22:20:40.972Z,42.97
2023-04-14T22:23:07.814Z,45.40
2023-04-14T22:25:35.496Z,44.27
2023-04-14T22:28:02.352Z,43.27
2023-04-14T22:30:29.838Z,43.10
2023-04-14T22:32:57.340Z,46.57
2023-04-14T22:35:24.332Z,41.10
2023-04-14T22:37:51.665Z,44.70
2023-04-14T22:40:18.574Z,44.40
2023-04-14T22:42:46.495Z,45.87
2023-04-14T22:45:13.583Z,42.40
2023-04-14T22:47:40.726Z,43.23
2023-04-14T22:50:09.012Z,45.93
2023-04-14T22:52:36.341Z,45.57
2023-04-14T22:55:03.394Z,42.73
2023-04-14T22:57:30.305Z,44.10
2023-04-14T22:59:57.403Z,42.43
2023-04-14T23:02:24.471Z,43.40
2023-04-14T23:04:52.063Z,43.97
2023-04-14T23:07:18.952Z,45.33
2023-04-14T23:09:45.827Z,43.97
2023-04-14T23:12:12.691Z,45.20
2023-04-14T23:14:39.559Z,43.90
2023-04-14T23:17:06.699Z,41.83
2023-04-14T23:19:33.651Z,40.50
2023-04-14T23:22:00.545Z,43.37
2023-04-14T23:24:27.490Z,43.77
2023-04-14T23:26:54.439Z,43.00
2023-04-14T23:29:21.415Z,42.40
2023-04-14T23:31:48.346Z,41.90
2023-04-14T23:34:15.276Z,40.67
2023-04-14T23:36:42.462Z,39.20
2023-04-14T23:39:09.330Z,41.00
2023-04-14T23:41:36.182Z,39.00
2023-04-14T23:44:03.077Z,37.63
2023-04-14T23:46:30.025Z,39.23
2023-04-14T23:48:57.823Z,37.60
2023-04-14T23:51:27.041Z,37.17
2023-04-14T23:53:54.121Z,36.07
2023-04-14T23:56:21.345Z,37.03
2023-04-14T23:58:48.530Z,36.27
